Time;durP1;ratioP1;P1;durP2;ratioP2;P2;SDS_P1;SDS_P2;PMS_P1;PMS_P2;Temp;Humidity;BMP_temperature;BMP_pressure;BME280_temperature;BME280_humidity;BME280_pressure;Samples;Min_cycle;Max_cycle;Signal;HPM_P1;HPM_P2
2021/12/03 00:00:15;;;;;;;;;;;;;;;-1.70;100.00;100980.59;5048937;28;20041;-54
2021/12/03 00:02:42;;;;;;;;;;;;;;;-1.72;100.00;100984.91;5048700;28;19947;-56
2021/12/03 00:05:09;;;;;;;;;;;;;;;-1.69;100.00;100979.75;5034477;28;19929;-55
2021/12/03 00:07:39;;;;;;;;;;;;;;;-1.70;100.00;100985.78;5087481;28;20284;-55
2021/12/03 00:10:07;;;;;;;;;;;;;;;-1.72;100.00;100988.38;5053054;28;19924;-54
2021/12/03 00:12:33;;;;;;;;;;;;;;;-1.70;100.00;100985.78;5053238;28;20280;-54
2021/12/03 00:15:00;;;;;;;;;;;;;;;-1.72;100.00;100990.94;5052453;28;20618;-56
2021/12/03 00:17:27;;;;;;;;;;;;;;;-1.72;100.00;100990.94;5052637;28;19932;-48
2021/12/03 00:19:53;;;;;;;;;;;;;;;-1.68;100.00;100999.47;5052600;28;20018;-51
2021/12/03 00:22:20;;;;;;;;;;;;;;;-1.72;100.00;100997.81;5052716;28;19958;-55
2021/12/03 00:24:47;;;;;;;;;;;;;;;-1.72;100.00;100997.81;5052854;28;20368;-53
2021/12/03 00:27:13;;;;;;;;;;;;;;;-1.75;100.00;100995.28;5052249;28;19925;-53
2021/12/03 00:29:40;;;;;;;;;;;;;;;-1.79;100.00;100996.19;5083859;28;19936;-53
2021/12/03 00:32:07;;;;;;;;;;;;;;;-1.78;100.00;100995.31;5052483;28;20355;-52
2021/12/03 00:34:34;;;;;;;;;;;;;;;-1.80;100.00;100992.75;5051755;28;19975;-52
2021/12/03 00:37:00;;;;;;;;;;;;;;;-1.82;100.00;100998.81;5052633;28;19925;-54
2021/12/03 00:39:27;;;;;;;;;;;;;;;-1.81;100.00;101005.66;5052559;28;19986;-51
2021/12/03 00:42:00;;;;;;;;;;;;;;;-1.81;100.00;101008.22;5053552;28;19925;-52
2021/12/03 00:44:29;;;;;;;;;;;;;;;-1.81;100.00;101000.50;5054976;28;20430;-53
2021/12/03 00:46:56;;;;;;;;;;;;;;;-1.83;100.00;101008.25;5054849;28;19924;-47
2021/12/03 00:49:23;;;;;;;;;;;;;;;-1.82;100.00;100998.81;5051539;28;19925;-48
2021/12/03 00:51:50;;;;;;;;;;;;;;;-1.81;100.00;101000.50;5053006;28;20291;-46
2021/12/03 00:54:16;;;;;;;;;;;;;;;-1.85;100.00;101003.97;5052592;28;19948;-49
2021/12/03 00:56:43;;;;;;;;;;;;;;;-1.83;100.00;100997.09;5052082;28;19955;-51
2021/12/03 00:59:10;;;;;;;;;;;;;;;-1.84;100.00;100990.22;5053608;28;19940;-53
2021/12/03 01:01:38;;;;;;;;;;;;;;;-1.85;100.00;100989.38;5052949;28;19925;-50
2021/12/03 01:04:05;;;;;;;;;;;;;;;-1.83;100.00;100989.34;5050136;28;20007;-49
2021/12/03 01:06:32;;;;;;;;;;;;;;;-1.85;100.00;100993.66;5052757;28;19925;-51
2021/12/03 01:08:59;;;;;;;;;;;;;;;-1.89;100.00;100988.53;5085515;28;19929;-49
2021/12/03 01:11:25;;;;;;;;;;;;;;;-1.84;100.00;101000.53;5050155;28;19925;-52
2021/12/03 01:13:57;;;;;;;;;;;;;;;-1.88;100.00;100992.84;5051833;28;19975;-53
2021/12/03 01:16:23;;;;;;;;;;;;;;;-1.90;100.00;100993.72;5053029;28;19928;-52
2021/12/03 01:18:50;;;;;;;;;;;;;;;-1.90;100.00;100997.16;5051546;28;19932;-50
2021/12/03 01:21:18;;;;;;;;;;;;;;;-1.91;100.00;100995.47;5051428;28;19932;-59
2021/12/03 01:23:45;;;;;;;;;;;;;;;-1.90;100.00;100996.31;5052530;28;20337;-55
2021/12/03 01:26:12;;;;;;;;;;;;;;;-1.90;100.00;100998.88;5050115;28;19929;-55
2021/12/03 01:28:39;;;;;;;;;;;;;;;-1.91;100.00;100998.03;5049933;28;20363;-49
2021/12/03 01:31:06;;;;;;;;;;;;;;;-1.88;100.00;101003.16;5050508;28;20415;-49
2021/12/03 01:33:32;;;;;;;;;;;;;;;-1.91;100.00;101000.63;5054226;28;20019;-51
2021/12/03 01:35:59;;;;;;;;;;;;;;;-1.90;100.00;100999.72;5053265;28;20046;-54
2021/12/03 01:38:26;;;;;;;;;;;;;;;-1.91;100.00;101008.34;5052425;28;19925;-54
2021/12/03 01:40:52;;;;;;;;;;;;;;;-1.90;100.00;101006.63;5049769;28;19980;-54
2021/12/03 01:43:22;;;;;;;;;;;;;;;-1.92;100.00;101003.22;5051415;28;20617;-51
2021/12/03 01:45:51;;;;;;;;;;;;;;;-1.91;100.00;100999.75;5050152;28;20683;-53
2021/12/03 01:48:17;;;;;;;;;;;;;;;-1.90;100.00;101010.03;5049750;28;19932;-53
2021/12/03 01:50:45;;;;;;;;;;;;;;;-1.92;100.00;101013.53;5049874;28;19935;-54
2021/12/03 01:53:12;;;;;;;;;;;;;;;-1.89;100.00;101008.34;5051031;28;19929;-54
2021/12/03 01:55:39;;;;;;;;;;;;;;;-1.85;100.00;101007.44;5049520;28;19928;-54
2021/12/03 01:58:06;;;;;;;;;;;;;;;-1.88;100.00;101002.31;5051565;28;19924;-54
2021/12/03 02:00:38;;;;;;;;;;;;;;;-1.95;100.00;101004.09;5048375;28;19924;-54
2021/12/03 02:03:06;;;;;;;;;;;;;;;-1.94;100.00;100995.47;5049002;28;19925;-55
2021/12/03 02:05:33;;;;;;;;;;;;;;;-1.95;100.00;101004.09;5052469;28;19990;-55
2021/12/03 02:08:00;;;;;;;;;;;;;;;-1.89;100.00;101001.44;5050451;28;19932;-53
2021/12/03 02:10:27;;;;;;;;;;;;;;;-1.89;100.00;101003.19;5050522;28;19929;-55
2021/12/03 02:12:55;;;;;;;;;;;;;;;-1.94;100.00;100994.63;5050529;28;20410;-56
2021/12/03 02:15:21;;;;;;;;;;;;;;;-1.96;100.00;100996.38;5050423;28;20410;-56
2021/12/03 02:17:48;;;;;;;;;;;;;;;-1.94;100.00;101000.63;5048796;28;19970;-52
2021/12/03 02:20:15;;;;;;;;;;;;;;;-1.94;100.00;100995.47;5052044;28;19987;-47
2021/12/03 02:22:43;;;;;;;;;;;;;;;-1.92;100.00;100998.06;5053106;28;19929;-46
2021/12/03 02:25:10;;;;;;;;;;;;;;;-1.93;100.00;100997.19;5052215;28;19975;-47
2021/12/03 02:27:37;;;;;;;;;;;;;;;-1.94;100.00;100997.22;5051929;28;20319;-52
2021/12/03 02:30:05;;;;;;;;;;;;;;;-1.95;100.00;101000.66;5053144;28;19925;-49
2021/12/03 02:32:31;;;;;;;;;;;;;;;-1.92;100.00;100995.47;5053163;28;20451;-53
2021/12/03 02:34:58;;;;;;;;;;;;;;;-1.91;100.00;100995.47;5052814;28;19975;-53
2021/12/03 02:37:25;;;;;;;;;;;;;;;-1.88;100.00;100994.56;5051146;28;19925;-49
2021/12/03 02:39:51;;;;;;;;;;;;;;;-1.86;100.00;101003.13;5050163;28;19994;-53
2021/12/03 02:42:18;;;;;;;;;;;;;;;-1.87;100.00;101004.00;5049863;28;19925;-49
2021/12/03 02:44:45;;;;;;;;;;;;;;;-1.89;100.00;100993.69;5049219;28;19933;-51
2021/12/03 02:47:12;;;;;;;;;;;;;;;-1.88;100.00;100995.41;5033784;28;19935;-55
2021/12/03 02:49:39;;;;;;;;;;;;;;;-1.79;100.00;100994.44;5053104;28;19971;-50
2021/12/03 02:52:06;;;;;;;;;;;;;;;-1.77;100.00;100992.72;5052792;28;19924;-49
2021/12/03 02:54:32;;;;;;;;;;;;;;;-1.79;100.00;100985.88;5050862;28;19929;-51
2021/12/03 02:57:00;;;;;;;;;;;;;;;-1.78;100.00;100987.59;5048773;28;19997;-51
2021/12/03 02:59:26;;;;;;;;;;;;;;;-1.72;100.00;100985.78;5049541;28;19928;-50
2021/12/03 03:01:53;;;;;;;;;;;;;;;-1.68;100.00;100986.59;5049514;28;19932;-51
2021/12/03 03:04:32;;;;;;;;;;;;;;;-1.64;100.00;100983.09;5049378;28;19994;-49
2021/12/03 03:07:00;;;;;;;;;;;;;;;-1.62;100.00;100980.50;5052473;28;19970;-51
2021/12/03 03:09:26;;;;;;;;;;;;;;;-1.62;100.00;100976.22;5049862;28;19932;-55
2021/12/03 03:11:53;;;;;;;;;;;;;;;-1.61;100.00;100970.19;5049733;28;19925;-56
2021/12/03 03:14:20;;;;;;;;;;;;;;;-1.60;100.00;100969.28;5048922;28;19928;-53
2021/12/03 03:16:46;;;;;;;;;;;;;;;-1.57;100.00;100961.53;5049531;28;19932;-55
2021/12/03 03:19:17;;;;;;;;;;;;;;;-1.55;100.00;100967.50;5047599;28;19979;-55
2021/12/03 03:21:44;;;;;;;;;;;;;;;-1.52;100.00;100970.94;5049532;28;19933;-55
2021/12/03 03:24:11;;;;;;;;;;;;;;;-1.49;100.00;100970.88;5048921;28;20303;-54
2021/12/03 03:26:38;;;;;;;;;;;;;;;-1.48;100.00;100967.44;5033421;28;19967;-54
2021/12/03 03:29:06;;;;;;;;;;;;;;;-1.48;100.00;100972.59;5050539;28;19955;-56
2021/12/03 03:31:34;;;;;;;;;;;;;;;-1.45;100.00;100975.13;5047086;28;19925;-54
2021/12/03 03:34:01;;;;;;;;;;;;;;;-1.44;100.00;100964.78;5049264;28;19951;-55
2021/12/03 03:36:31;;;;;;;;;;;;;;;-1.42;100.00;100973.38;5049232;28;20265;-56
2021/12/03 03:38:57;;;;;;;;;;;;;;;-1.41;100.00;100969.06;5050105;28;19928;-54
2021/12/03 03:41:24;;;;;;;;;;;;;;;-1.41;100.00;100971.63;5052040;28;19931;-53
2021/12/03 03:43:51;;;;;;;;;;;;;;;-1.42;100.00;100978.53;5055363;28;19964;-56
2021/12/03 03:46:17;;;;;;;;;;;;;;;-1.41;100.00;100969.91;5051021;28;19951;-53
2021/12/03 03:48:44;;;;;;;;;;;;;;;-1.38;100.00;100959.56;5052797;28;19933;-50
2021/12/03 03:51:11;;;;;;;;;;;;;;;-1.37;100.00;100960.41;5054349;28;19948;-51
2021/12/03 03:53:39;;;;;;;;;;;;;;;-1.36;100.00;100951.78;5054992;28;19932;-52
2021/12/03 03:56:06;;;;;;;;;;;;;;;-1.32;100.00;100948.28;5056181;28;19925;-56
2021/12/03 03:58:33;;;;;;;;;;;;;;;-1.28;100.00;100951.66;5056296;28;19998;-55
2021/12/03 04:00:59;;;;;;;;;;;;;;;-1.25;100.00;100944.75;5051096;28;19982;-53
2021/12/03 04:03:26;;;;;;;;;;;;;;;-1.15;100.00;100944.63;5052768;28;19931;-53
2021/12/03 04:05:53;;;;;;;;;;;;;;;-1.12;100.00;100947.13;5052334;28;19925;-52
2021/12/03 04:08:20;;;;;;;;;;;;;;;-1.10;100.00;100948.00;5054336;28;19925;-47
2021/12/03 04:10:47;;;;;;;;;;;;;;;-1.09;100.00;100949.66;5068560;28;19975;-48
2021/12/03 04:13:14;;;;;;;;;;;;;;;-1.06;100.00;100949.66;5053322;28;19929;-48
2021/12/03 04:15:42;;;;;;;;;;;;;;;-1.06;100.00;100945.31;5055451;28;19924;-48
2021/12/03 04:18:09;;;;;;;;;;;;;;;-1.03;100.00;100939.25;5055447;28;19928;-51
2021/12/03 04:20:36;;;;;;;;;;;;;;;-1.02;100.00;100938.41;5052641;28;19925;-48
2021/12/03 04:23:02;;;;;;;;;;;;;;;-0.98;100.00;100941.75;5053017;28;19951;-49
2021/12/03 04:25:29;;;;;;;;;;;;;;;-0.99;100.00;100933.19;5084842;28;19932;-52
2021/12/03 04:27:56;;;;;;;;;;;;;;;-0.95;100.00;100942.56;5052643;28;20352;-51
2021/12/03 04:30:24;;;;;;;;;;;;;;;-0.95;100.00;100939.16;5052008;28;20307;-52
2021/12/03 04:32:52;;;;;;;;;;;;;;;-0.93;100.00;100940.81;5052035;28;20107;-50
2021/12/03 04:35:18;;;;;;;;;;;;;;;-0.92;100.00;100950.25;5051497;28;19933;-51
2021/12/03 04:37:45;;;;;;;;;;;;;;;-0.90;100.00;100938.19;5034230;28;20307;-50
2021/12/03 04:40:13;;;;;;;;;;;;;;;-0.90;100.00;100938.19;5052344;28;19932;-52
2021/12/03 04:42:40;;;;;;;;;;;;;;;-0.88;100.00;100941.59;5050345;28;19925;-56
2021/12/03 04:45:07;;;;;;;;;;;;;;;-0.81;100.00;100934.59;5051968;28;19931;-51
2021/12/03 04:47:34;;;;;;;;;;;;;;;-0.83;100.00;100938.09;5052754;28;19929;-51
2021/12/03 04:50:01;;;;;;;;;;;;;;;-0.79;100.00;100937.16;5054405;28;19932;-52
2021/12/03 04:52:28;;;;;;;;;;;;;;;-0.76;100.00;100937.13;5051167;28;19924;-50
2021/12/03 04:54:54;;;;;;;;;;;;;;;-0.69;100.00;100936.13;5052329;28;19925;-53
2021/12/03 04:57:21;;;;;;;;;;;;;;;-0.61;100.00;100934.28;5052205;28;20832;-51
2021/12/03 04:59:48;;;;;;;;;;;;;;;-0.63;100.00;100943.75;5051551;28;19928;-50
2021/12/03 05:02:15;;;;;;;;;;;;;;;-0.63;100.00;100941.19;5051877;28;19931;-55
2021/12/03 05:04:42;;;;;;;;;;;;;;;-0.59;100.00;100944.56;5050438;28;20430;-55
2021/12/03 05:09:36;;;;;;;;;;;;;;;-0.59;100.00;100934.25;5050915;28;19929;-54
2021/12/03 05:12:03;;;;;;;;;;;;;;;-0.51;100.00;100935.81;5050527;28;19928;-49
2021/12/03 05:14:30;;;;;;;;;;;;;;;-0.46;100.00;100940.03;5049553;28;19936;-53
2021/12/03 05:16:57;;;;;;;;;;;;;;;-0.43;100.00;100921.91;5052921;28;19971;-51
2021/12/03 05:19:23;;;;;;;;;;;;;;;-0.36;100.00;100920.91;5053235;28;19924;-50
2021/12/03 05:21:50;;;;;;;;;;;;;;;-0.38;100.00;100918.34;5052084;28;20265;-50
2021/12/03 05:24:17;;;;;;;;;;;;;;;-0.36;100.00;100919.16;5084045;28;19929;-50
2021/12/03 05:26:44;;;;;;;;;;;;;;;-0.34;100.00;100914.00;5054020;28;19979;-50
2021/12/03 05:29:11;;;;;;;;;;;;;;;-0.33;100.00;100922.59;5050520;28;19925;-53
2021/12/03 05:31:37;;;;;;;;;;;;;;;-0.30;100.00;100922.53;5049969;28;19955;-52
2021/12/03 05:34:24;;;;;;;;;;;;;;;-0.25;100.00;100929.31;5050551;28;19925;-53
2021/12/03 05:36:51;;;;;;;;;;;;;;;-0.19;100.00;100939.53;5054168;28;19928;-50
2021/12/03 05:39:18;;;;;;;;;;;;;;;-0.19;100.00;100929.19;5053671;28;20441;-49
2021/12/03 05:41:45;;;;;;;;;;;;;;;-0.17;100.00;100927.44;5050642;28;19929;-52
2021/12/03 05:44:13;;;;;;;;;;;;;;;-0.15;100.00;100926.56;5051787;28;20646;-51
2021/12/03 05:46:40;;;;;;;;;;;;;;;-0.09;100.00;100934.19;5081892;28;19929;-55
2021/12/03 05:49:07;;;;;;;;;;;;;;;-0.07;100.00;100928.13;5050713;28;19925;-53
2021/12/03 05:51:33;;;;;;;;;;;;;;;-0.04;100.00;100930.66;5051772;28;20684;-50
2021/12/03 05:54:00;;;;;;;;;;;;;;;-0.03;100.00;100922.00;5050021;28;20327;-48
2021/12/03 05:56:26;;;;;;;;;;;;;;;0.01;100.00;100924.53;5049772;28;19978;-46
2021/12/03 05:58:58;;;;;;;;;;;;;;;0.06;100.00;100931.31;5033920;28;19931;-54
2021/12/03 06:01:24;;;;;;;;;;;;;;;0.13;100.00;100927.69;5051976;28;20379;-54
2021/12/03 06:03:51;;;;;;;;;;;;;;;0.09;100.00;100927.81;5050676;28;20771;-50
2021/12/03 06:06:18;;;;;;;;;;;;;;;0.11;100.00;100932.06;5049777;28;19929;-51
2021/12/03 06:08:44;;;;;;;;;;;;;;;0.12;100.00;100927.75;5050490;28;19936;-50
2021/12/03 06:11:11;;;;;;;;;;;;;;;0.17;100.00;100926.75;5050315;28;19925;-48
2021/12/03 06:13:40;;;;;;;;;;;;;;;0.19;100.00;100918.97;5053304;28;20384;-52
2021/12/03 06:16:08;;;;;;;;;;;;;;;0.18;100.00;100922.47;5049788;28;19932;-47
2021/12/03 06:18:35;;;;;;;;;;;;;;;0.21;100.00;100913.78;5048783;28;19925;-52
2021/12/03 06:21:03;;;;;;;;;;;;;;;0.24;100.00;100908.53;5049653;28;19931;-51
2021/12/03 06:23:30;;;;;;;;;;;;;;;0.25;100.00;100900.75;5051905;28;19929;-48
2021/12/03 06:25:58;;;;;;;;;;;;;;;0.28;100.00;100902.41;5053688;28;19925;-48
2021/12/03 06:28:25;;;;;;;;;;;;;;;0.31;100.00;100891.97;5051346;28;19924;-52
2021/12/03 06:30:52;;;;;;;;;;;;;;;0.37;100.00;100894.47;5049150;28;19933;-50
2021/12/03 06:33:19;;;;;;;;;;;;;;;0.34;100.00;100899.66;5016802;28;19974;-55
2021/12/03 06:35:46;;;;;;;;;;;;;;;0.40;100.00;100896.97;5050890;28;19929;-53
2021/12/03 06:38:14;;;;;;;;;;;;;;;0.41;100.00;100902.97;5050111;28;19982;-47
2021/12/03 06:40:43;;;;;;;;;;;;;;;0.43;100.00;100899.47;5047783;28;20360;-49
2021/12/03 06:43:09;;;;;;;;;;;;;;;0.44;100.00;100896.00;5050147;28;19932;-51
2021/12/03 06:45:36;;;;;;;;;;;;;;;0.43;100.00;100891.72;5048849;28;20570;-54
2021/12/03 06:48:03;;;;;;;;;;;;;;;0.50;100.00;100893.31;5048936;28;19970;-54
2021/12/03 06:50:31;;;;;;;;;;;;;;;0.53;100.00;100888.94;5049031;28;19978;-53
2021/12/03 06:53:07;;;;;;;;;;;;;;;0.50;100.00;100893.31;5049868;28;20392;-54
2021/12/03 06:55:43;;;;;;;;;;;;;;;0.53;100.00;100901.88;5051816;28;19929;-54
2021/12/03 06:58:10;;;;;;;;;;;;;;;0.55;100.00;100890.59;5052731;28;20391;-53
2021/12/03 07:00:37;;;;;;;;;;;;;;;0.56;100.00;100887.13;5048073;28;19932;-56
2021/12/03 07:03:04;;;;;;;;;;;;;;;0.56;100.00;100886.25;5050143;28;19928;-56
2021/12/03 07:05:31;;;;;;;;;;;;;;;0.59;100.00;100891.41;5068427;28;20319;-52
2021/12/03 07:07:57;;;;;;;;;;;;;;;0.60;100.00;100891.34;5051709;28;20318;-56
2021/12/03 07:10:24;;;;;;;;;;;;;;;0.63;100.00;100882.66;5052505;28;19978;-54
2021/12/03 07:12:52;;;;;;;;;;;;;;;0.67;100.00;100871.34;5052331;28;20392;-49
2021/12/03 07:15:18;;;;;;;;;;;;;;;0.66;100.00;100867.06;5033788;28;19931;-52
2021/12/03 07:17:49;;;;;;;;;;;;;;;0.70;100.00;100862.66;5048702;28;19951;-52
2021/12/03 07:20:16;;;;;;;;;;;;;;;0.67;100.00;100861.00;5049869;28;20537;-49
2021/12/03 07:22:43;;;;;;;;;;;;;;;0.65;100.00;100865.34;5051399;28;20268;-53
2021/12/03 07:25:09;;;;;;;;;;;;;;;0.67;100.00;100859.25;5051881;28;19924;-52
2021/12/03 07:27:36;;;;;;;;;;;;;;;0.73;100.00;100857.41;5049464;28;19925;-50
2021/12/03 07:30:03;;;;;;;;;;;;;;;0.71;100.00;100854.84;5051090;28;20399;-52
2021/12/03 07:32:30;;;;;;;;;;;;;;;0.74;100.00;100853.94;5051097;28;20395;-52
2021/12/03 07:34:57;;;;;;;;;;;;;;;0.67;100.00;100856.66;5052640;28;19979;-49
2021/12/03 07:37:24;;;;;;;;;;;;;;;0.66;100.00;100854.94;5052417;28;19925;-51
2021/12/03 07:39:51;;;;;;;;;;;;;;;0.70;100.00;100855.75;5052572;28;19932;-53
2021/12/03 07:42:17;;;;;;;;;;;;;;;0.74;100.00;100859.13;5051468;28;19928;-55
2021/12/03 07:44:44;;;;;;;;;;;;;;;0.74;100.00;100859.13;5048561;28;19936;-55
2021/12/03 07:47:11;;;;;;;;;;;;;;;0.75;100.00;100866.84;5048986;28;19971;-53
2021/12/03 07:49:39;;;;;;;;;;;;;;;0.78;100.00;100874.53;5049168;28;19932;-54
2021/12/03 07:52:06;;;;;;;;;;;;;;;0.77;100.00;100865.06;5049126;28;19928;-54
2021/12/03 07:54:33;;;;;;;;;;;;;;;0.75;100.00;100858.22;5047991;28;19925;-53
2021/12/03 07:56:59;;;;;;;;;;;;;;;0.77;100.00;100854.69;5049936;28;19925;-55
2021/12/03 07:59:26;;;;;;;;;;;;;;;0.78;100.00;100861.59;5048547;28;19980;-54
2021/12/03 08:01:53;;;;;;;;;;;;;;;0.75;100.00;100853.03;5031339;28;20400;-53
2021/12/03 08:04:20;;;;;;;;;;;;;;;0.76;100.00;100860.75;5049156;28;19925;-52
2021/12/03 08:06:54;;;;;;;;;;;;;;;0.78;100.00;100853.81;5048191;28;19978;-52
2021/12/03 08:09:21;;;;;;;;;;;;;;;0.81;100.00;100858.91;5050978;28;19975;-51
2021/12/03 08:11:48;;;;;;;;;;;;;;;0.79;100.00;100855.53;5049913;28;20403;-52
2021/12/03 08:14:15;;;;;;;;;;;;;;;0.83;100.00;100849.38;5049371;28;19956;-55
2021/12/03 08:16:42;;;;;;;;;;;;;;;0.81;100.00;100850.31;5050831;28;20130;-48
2021/12/03 08:19:09;;;;;;;;;;;;;;;0.91;100.00;100848.34;5034632;28;19924;-51
2021/12/03 08:21:36;;;;;;;;;;;;;;;0.87;100.00;100859.66;5052058;28;19974;-49
2021/12/03 08:24:02;;;;;;;;;;;;;;;0.88;100.00;100861.38;5051303;28;19924;-53
2021/12/03 08:26:29;;;;;;;;;;;;;;;0.86;100.00;100865.72;5053919;28;19931;-55
2021/12/03 08:28:56;;;;;;;;;;;;;;;0.86;100.00;100864.00;5051123;28;19979;-55
2021/12/03 08:31:22;;;;;;;;;;;;;;;0.90;100.00;100856.97;5051926;28;19924;-52
2021/12/03 08:33:51;;;;;;;;;;;;;;;0.90;100.00;100839.72;5054426;28;20334;-51
2021/12/03 08:36:18;;;;;;;;;;;;;;;0.90;100.00;100850.09;5052508;28;20292;-48
2021/12/03 08:38:45;;;;;;;;;;;;;;;0.94;100.00;100845.66;5052649;28;20386;-49
2021/12/03 08:41:16;;;;;;;;;;;;;;;0.94;100.00;100840.47;5052504;28;19931;-54
2021/12/03 08:43:44;;;;;;;;;;;;;;;0.91;100.00;100848.34;5054257;28;19932;-54
2021/12/03 08:46:34;;;;;;;;;;;;;;;0.94;100.00;100840.47;5054850;28;20419;-54
2021/12/03 08:49:27;;;;;;;;;;;;;;;0.95;100.00;100829.25;5052254;28;19925;-54
2021/12/03 08:52:25;;;;;;;;;;;;;;;0.98;100.00;100831.75;5052252;28;19967;-55
2021/12/03 08:54:52;;;;;;;;;;;;;;;1.01;100.00;100829.09;5052538;28;20002;-53
2021/12/03 08:57:23;;;;;;;;;;;;;;;1.08;100.00;100822.84;5054987;28;19956;-51
2021/12/03 08:59:51;;;;;;;;;;;;;;;1.05;100.00;100817.75;5053108;28;19929;-53
2021/12/03 09:02:18;;;;;;;;;;;;;;;1.11;100.00;100819.34;5050848;28;19964;-54
2021/12/03 09:04:45;;;;;;;;;;;;;;;1.16;100.00;100810.56;5050370;28;19978;-48
2021/12/03 09:07:11;;;;;;;;;;;;;;;1.15;100.00;100813.19;5054274;28;19942;-53
2021/12/03 09:09:38;;;;;;;;;;;;;;;1.12;100.00;100808.09;5052026;28;20303;-51
2021/12/03 09:12:05;;;;;;;;;;;;;;;1.13;100.00;100802.00;5052902;28;19925;-51
2021/12/03 09:14:44;;;;;;;;;;;;;;;1.20;100.00;100802.69;5053457;28;19975;-50
2021/12/03 09:22:20;;;;;;;;;;;;;;;1.35;100.00;100812.66;5050343;28;19932;-52
2021/12/03 09:24:47;;;;;;;;;;;;;;;1.31;100.00;100808.44;5051700;28;20296;-53
2021/12/03 09:27:16;;;;;;;;;;;;;;;1.32;100.00;100813.59;5051631;28;19933;-52
2021/12/03 09:29:43;;;;;;;;;;;;;;;1.40;100.00;100812.53;5051195;28;19925;-52
2021/12/03 09:32:09;;;;;;;;;;;;;;;1.42;100.00;100819.38;5051036;28;20369;-54
2021/12/03 09:34:36;;;;;;;;;;;;;;;1.46;100.00;100818.38;5051042;28;19925;-54
2021/12/03 09:37:03;;;;;;;;;;;;;;;1.47;100.00;100814.91;5050881;28;19924;-55
2021/12/03 09:39:29;;;;;;;;;;;;;;;1.51;100.00;100816.53;5051447;28;19968;-54
2021/12/03 09:41:58;;;;;;;;;;;;;;;1.57;100.00;100817.22;5050857;28;19929;-55
2021/12/03 09:44:26;;;;;;;;;;;;;;;1.54;100.00;100805.22;5049218;28;20392;-48
2021/12/03 09:46:53;;;;;;;;;;;;;;;1.57;100.00;100809.44;5050947;28;20362;-49
2021/12/03 09:51:58;;;;;;;;;;;;;;;1.66;100.00;100809.19;5050704;28;20024;-50
2021/12/03 09:57:12;;;;;;;;;;;;;;;1.78;100.00;100793.28;5050994;28;20126;-48
2021/12/03 10:19:04;;;;;;;;;;;;;;;1.80;100.00;100765.56;5051696;28;19932;-50
2021/12/03 10:30:08;;;;;;;;;;;;;;;1.92;99.71;100745.34;5052328;28;19978;-51
2021/12/03 10:40:27;;;;;;;;;;;;;;;1.95;100.00;100724.47;5050489;28;19925;-51
2021/12/03 10:43:16;;;;;;;;;;;;;;;1.95;100.00;100720.16;5049849;28;19924;-50
2021/12/03 10:46:21;;;;;;;;;;;;;;;2.06;100.00;100713.78;5050274;28;19925;-51
2021/12/03 11:27:49;;;;;;;;;;;;;;;2.30;100.00;100634.28;5049664;28;20455;-52
2021/12/03 11:38:32;;;;;;;;;;;;;;;2.39;100.00;100614.94;5048629;28;19929;-51
2021/12/03 11:50:26;;;;;;;;;;;;;;;2.51;100.00;100617.13;5052378;28;19925;-56
2021/12/03 13:13:06;;;;;;;;;;;;;;;3.42;93.98;100498.50;5049450;28;19925;-56
2021/12/03 13:57:52;;;;;;;;;;;;;;;3.57;93.05;100424.22;5053903;28;20337;-51
2021/12/03 14:39:22;;;;;;;;;;;;;;;3.21;100.00;100418.75;5052864;28;19955;-51
2021/12/03 14:57:08;;;;;;;;;;;;;;;3.04;100.00;100424.63;5051297;28;19935;-57
2021/12/03 14:59:37;;;;;;;;;;;;;;;2.99;100.00;100436.97;5050334;28;19960;-56
2021/12/03 15:07:15;;;;;;;;;;;;;;;2.94;100.00;100427.66;5048957;28;19932;-55
2021/12/03 15:09:45;;;;;;;;;;;;;;;2.93;100.00;100436.38;5051488;28;19932;-56
2021/12/03 15:16:22;;;;;;;;;;;;;;;2.77;100.00;100431.78;5050836;28;20395;-57
2021/12/03 15:20:48;;;;;;;;;;;;;;;2.92;100.00;100434.66;5052576;28;19975;-54
2021/12/03 15:23:26;;;;;;;;;;;;;;;2.92;100.00;100429.47;5052680;28;20304;-55
2021/12/03 15:25:58;;;;;;;;;;;;;;;2.77;100.00;100413.59;5052527;28;20338;-57
2021/12/03 15:31:04;;;;;;;;;;;;;;;2.79;100.00;100408.34;5051901;28;20453;-53
2021/12/03 15:33:49;;;;;;;;;;;;;;;2.71;100.00;100400.84;5048286;28;19929;-49
2021/12/03 15:36:29;;;;;;;;;;;;;;;2.75;100.00;100389.44;5037437;28;19925;-48
2021/12/03 15:53:09;;;;;;;;;;;;;;;2.76;100.00;100367.75;5052983;28;19924;-51
2021/12/03 15:58:26;;;;;;;;;;;;;;;2.66;100.00;100366.44;5056409;28;19932;-52
2021/12/03 16:04:04;;;;;;;;;;;;;;;2.69;100.00;100358.53;5055130;28;19960;-50
2021/12/03 16:09:08;;;;;;;;;;;;;;;2.68;100.00;100346.44;5053032;28;19925;-53
2021/12/03 16:22:29;;;;;;;;;;;;;;;2.70;100.00;100339.44;5053423;28;19931;-47
2021/12/03 16:25:07;;;;;;;;;;;;;;;2.70;100.00;100336.84;5053139;28;19935;-50
2021/12/03 16:54:16;;;;;;;;;;;;;;;2.79;100.00;100307.06;5053910;28;20003;-54
2021/12/03 16:56:53;;;;;;;;;;;;;;;2.81;100.00;100306.09;5053037;28;19924;-53
2021/12/03 16:59:21;;;;;;;;;;;;;;;2.80;100.00;100312.19;5049939;28;19925;-55
2021/12/03 17:02:04;;;;;;;;;;;;;;;2.82;100.00;100312.97;5054197;28;19929;-57
2021/12/03 17:12:57;;;;;;;;;;;;;;;2.80;100.00;100295.75;5050565;28;19935;-48
2021/12/03 17:50:35;;;;;;;;;;;;;;;2.94;100.00;100277.00;5050106;28;20391;-46
2021/12/03 17:53:23;;;;;;;;;;;;;;;2.95;100.00;100273.50;5052286;28;19947;-50
2021/12/03 17:58:36;;;;;;;;;;;;;;;2.98;100.00;100247.38;5049982;28;19928;-54
2021/12/03 18:01:12;;;;;;;;;;;;;;;2.96;100.00;100241.38;5047987;28;19928;-53
2021/12/03 18:14:22;;;;;;;;;;;;;;;3.09;100.00;100231.31;5050785;28;19929;-55
2021/12/03 18:47:17;;;;;;;;;;;;;;;3.13;100.00;100214.69;5048937;28;19933;-51
2021/12/03 18:52:15;;;;;;;;;;;;;;;3.12;100.00;100219.06;5049165;28;19932;-49
2021/12/03 18:55:03;;;;;;;;;;;;;;;3.13;100.00;100218.13;5051945;28;20380;-49
2021/12/03 18:57:33;;;;;;;;;;;;;;;3.15;100.00;100223.25;5052934;28;19932;-49
2021/12/03 19:00:04;;;;;;;;;;;;;;;3.14;100.00;100222.41;5050899;28;19931;-48
2021/12/03 19:02:33;;;;;;;;;;;;;;;3.17;100.00;100224.03;5048857;28;19935;-52
2021/12/03 19:05:16;;;;;;;;;;;;;;;3.15;100.00;100221.50;5049468;28;20449;-49
2021/12/03 19:07:48;;;;;;;;;;;;;;;3.21;100.00;100226.41;5048931;28;20031;-49
2021/12/03 19:10:20;;;;;;;;;;;;;;;3.17;100.00;100211.03;5048581;28;19925;-49
2021/12/03 19:12:55;;;;;;;;;;;;;;;3.17;100.00;100209.28;5047548;28;19925;-50
2021/12/03 19:15:22;;;;;;;;;;;;;;;3.16;100.00;100207.63;5047665;28;20613;-49
2021/12/03 19:17:49;;;;;;;;;;;;;;;3.14;100.00;100204.22;5047260;28;19975;-52
2021/12/03 19:20:21;;;;;;;;;;;;;;;3.17;100.00;100213.66;5049039;28;19924;-52
2021/12/03 19:22:48;;;;;;;;;;;;;;;3.14;100.00;100212.03;5049551;28;20391;-49
2021/12/03 19:25:16;;;;;;;;;;;;;;;3.11;100.00;100212.16;5049506;28;19925;-52
2021/12/03 19:27:43;;;;;;;;;;;;;;;3.14;100.00;100214.63;5050374;28;20406;-57
2021/12/03 19:30:10;;;;;;;;;;;;;;;3.18;100.00;100212.75;5051380;28;19924;-55
2021/12/03 19:32:36;;;;;;;;;;;;;;;3.18;100.00;100218.75;5052086;28;19925;-54
2021/12/03 19:35:03;;;;;;;;;;;;;;;3.16;100.00;100217.16;5052537;28;19925;-54
2021/12/03 19:37:30;;;;;;;;;;;;;;;3.10;100.00;100217.44;5052563;28;19931;-52
2021/12/03 19:39:59;;;;;;;;;;;;;;;3.11;100.00;100217.34;5052194;28;19932;-53
2021/12/03 19:42:33;;;;;;;;;;;;;;;3.06;100.00;100219.31;5052213;28;20015;-54
2021/12/03 19:45:05;;;;;;;;;;;;;;;3.12;100.00;100213.84;5052143;28;20030;-52
2021/12/03 19:47:48;;;;;;;;;;;;;;;3.15;100.00;100213.72;5050977;28;19925;-48
2021/12/03 19:53:00;;;;;;;;;;;;;;;3.15;100.00;100218.03;5048570;28;19932;-51
2021/12/03 19:55:28;;;;;;;;;;;;;;;3.16;100.00;100201.56;5048961;28;20371;-57
2021/12/03 19:57:54;;;;;;;;;;;;;;;3.15;100.00;100205.91;5048572;28;20340;-47
2021/12/03 20:00:25;;;;;;;;;;;;;;;3.13;100.00;100212.09;5048631;28;19932;-56
2021/12/03 20:02:51;;;;;;;;;;;;;;;3.18;100.00;100210.13;5047378;28;19924;-53
2021/12/03 20:05:18;;;;;;;;;;;;;;;3.27;100.00;100207.09;5048735;28;19939;-54
2021/12/03 20:07:45;;;;;;;;;;;;;;;3.22;100.00;100193.50;5051392;28;20043;-55